createdAt,value
2019-02-19T00:01:04.446Z,6.70
2019-02-19T00:03:32.430Z,6.80
2019-02-19T00:06:00.157Z,6.80
2019-02-19T00:08:28.153Z,6.80
2019-02-19T00:10:55.816Z,6.80
2019-02-19T00:13:23.697Z,6.90
2019-02-19T00:15:51.782Z,7.00
2019-02-19T00:18:19.281Z,7.00
2019-02-19T00:20:46.769Z,7.00
2019-02-19T00:23:16.274Z,7.00
2019-02-19T00:25:44.099Z,6.90
2019-02-19T00:28:11.912Z,7.00
2019-02-19T00:30:40.044Z,6.90
2019-02-19T00:33:07.909Z,6.90
2019-02-19T00:35:35.869Z,6.90
2019-02-19T00:38:03.609Z,6.90
2019-02-19T00:40:31.428Z,6.90
2019-02-19T00:42:59.286Z,6.90
2019-02-19T00:45:27.480Z,6.90
2019-02-19T00:47:55.361Z,6.90
2019-02-19T00:50:23.058Z,6.90
2019-02-19T00:52:50.553Z,6.80
2019-02-19T00:55:18.433Z,6.80
2019-02-19T00:57:45.825Z,6.80
2019-02-19T01:00:15.763Z,6.70
2019-02-19T01:02:43.536Z,6.70
2019-02-19T01:05:11.428Z,6.70
2019-02-19T01:07:39.400Z,6.70
2019-02-19T01:10:07.282Z,6.60
2019-02-19T01:12:35.309Z,6.60
2019-02-19T01:15:03.585Z,6.60
2019-02-19T01:17:31.018Z,6.50
2019-02-19T01:19:59.001Z,6.50
2019-02-19T01:22:26.728Z,6.40
2019-02-19T01:24:54.664Z,6.40
2019-02-19T01:27:22.627Z,6.40
2019-02-19T01:29:50.569Z,6.40
2019-02-19T01:32:18.988Z,6.40
2019-02-19T01:34:46.808Z,6.40
2019-02-19T01:37:14.790Z,6.40
2019-02-19T01:39:42.748Z,6.40
2019-02-19T01:42:10.619Z,6.40
2019-02-19T01:44:38.794Z,6.40
2019-02-19T01:47:06.612Z,6.40
2019-02-19T01:49:34.671Z,6.40
2019-02-19T01:52:05.148Z,6.40
2019-02-19T01:54:32.691Z,6.40
2019-02-19T01:57:00.271Z,6.40
2019-02-19T01:59:28.109Z,6.40
2019-02-19T02:01:55.914Z,6.40
2019-02-19T02:04:23.612Z,6.30
2019-02-19T02:06:51.408Z,6.30
2019-02-19T02:09:19.580Z,6.30
2019-02-19T02:11:47.067Z,6.30
2019-02-19T02:14:15.017Z,6.30
2019-02-19T02:16:42.888Z,6.30
2019-02-19T02:19:10.421Z,6.30
2019-02-19T02:21:38.687Z,6.30
2019-02-19T02:24:06.228Z,6.30
2019-02-19T02:26:34.097Z,6.20
2019-02-19T02:29:01.688Z,6.30
2019-02-19T02:31:29.373Z,6.30
2019-02-19T02:33:57.279Z,6.30
2019-02-19T02:36:25.483Z,6.30
2019-02-19T02:38:53.517Z,6.30
2019-02-19T02:41:21.279Z,6.30
2019-02-19T02:43:49.210Z,6.40
2019-02-19T02:46:17.113Z,6.40
2019-02-19T02:48:45.056Z,6.50
2019-02-19T02:51:14.404Z,6.60
2019-02-19T02:53:41.943Z,6.60
2019-02-19T02:56:09.932Z,6.70
2019-02-19T02:58:38.641Z,6.70
2019-02-19T03:01:06.651Z,6.70
2019-02-19T03:03:34.439Z,6.70
2019-02-19T03:06:20.867Z,6.70
2019-02-19T03:08:48.751Z,6.70
2019-02-19T03:11:16.871Z,6.60
2019-02-19T03:13:45.019Z,6.60
2019-02-19T03:16:13.138Z,6.60
2019-02-19T03:18:41.311Z,6.60
2019-02-19T03:21:09.013Z,6.60
2019-02-19T03:23:37.233Z,6.60
2019-02-19T03:26:05.131Z,6.60
2019-02-19T03:28:33.063Z,6.60
2019-02-19T03:31:00.598Z,6.60
2019-02-19T03:33:28.317Z,6.70
2019-02-19T03:35:55.805Z,6.70
2019-02-19T03:38:23.178Z,6.70
2019-02-19T03:40:51.161Z,6.80
2019-02-19T03:43:19.007Z,6.80
2019-02-19T03:45:46.558Z,6.80
2019-02-19T03:48:14.620Z,6.80
2019-02-19T03:51:22.633Z,6.90
2019-02-19T03:53:50.941Z,6.90
2019-02-19T03:56:18.812Z,6.90
2019-02-19T03:58:46.525Z,6.90
2019-02-19T04:01:14.395Z,6.90
2019-02-19T04:03:41.963Z,6.90
2019-02-19T04:06:09.993Z,6.90
2019-02-19T04:08:37.895Z,7.00
2019-02-19T04:11:05.807Z,7.00
2019-02-19T04:13:33.427Z,7.00
2019-02-19T04:16:01.317Z,6.90
2019-02-19T04:18:29.150Z,6.90
2019-02-19T04:20:56.641Z,6.90
2019-02-19T04:23:24.128Z,6.80
2019-02-19T04:25:52.109Z,6.90
2019-02-19T04:28:20.188Z,6.80
2019-02-19T04:30:47.986Z,6.80
2019-02-19T04:33:15.893Z,6.80
2019-02-19T04:35:43.551Z,6.70
2019-02-19T04:38:11.579Z,6.70
2019-02-19T04:40:39.545Z,6.70
2019-02-19T04:43:07.777Z,6.70
2019-02-19T04:45:35.335Z,6.60
2019-02-19T04:48:03.132Z,6.60
2019-02-19T04:50:31.012Z,6.60
2019-02-19T04:52:59.053Z,6.50
2019-02-19T04:55:27.314Z,6.50
2019-02-19T04:57:55.416Z,6.40
2019-02-19T05:00:23.619Z,6.40
2019-02-19T05:02:52.161Z,6.40
2019-02-19T05:05:22.363Z,6.30
2019-02-19T05:07:50.212Z,6.30
2019-02-19T05:10:18.684Z,6.30
2019-02-19T05:12:50.049Z,6.30
2019-02-19T05:15:18.126Z,6.30
2019-02-19T05:17:46.165Z,6.30
2019-02-19T05:20:14.381Z,6.30
2019-02-19T05:22:44.853Z,6.30
2019-02-19T05:25:13.120Z,6.30
2019-02-19T05:27:42.196Z,6.20
2019-02-19T05:30:11.552Z,6.30
2019-02-19T05:32:39.977Z,6.30
2019-02-19T05:35:08.780Z,6.30
2019-02-19T05:37:41.136Z,6.30
2019-02-19T05:40:09.320Z,6.40
2019-02-19T05:42:37.906Z,6.40
2019-02-19T05:45:06.037Z,6.30
2019-02-19T05:47:37.189Z,6.40
2019-02-19T05:50:05.789Z,6.40
2019-02-19T05:52:41.761Z,6.40
2019-02-19T05:55:09.936Z,6.40
2019-02-19T06:00:43.205Z,6.40
2019-02-19T06:03:11.599Z,6.40
2019-02-19T06:05:39.908Z,6.40
2019-02-19T06:08:09.378Z,6.40
2019-02-19T06:10:37.804Z,6.40
2019-02-19T06:13:05.722Z,6.40
2019-02-19T06:15:34.310Z,6.40
2019-02-19T06:18:03.213Z,6.40
2019-02-19T06:20:32.864Z,6.40
2019-02-19T06:23:00.619Z,6.40
2019-02-19T06:25:29.331Z,6.40
2019-02-19T06:27:57.939Z,6.40
2019-02-19T06:30:29.142Z,6.40
2019-02-19T06:32:58.481Z,6.50
2019-02-19T06:35:26.963Z,6.50
2019-02-19T06:37:59.640Z,6.50
2019-02-19T06:40:30.027Z,6.50
2019-02-19T06:42:58.499Z,6.50
2019-02-19T06:45:41.033Z,6.50
2019-02-19T06:48:09.945Z,6.60
2019-02-19T06:50:38.332Z,6.60
2019-02-19T06:53:09.418Z,6.60
2019-02-19T06:55:41.501Z,6.60
2019-02-19T06:58:13.578Z,6.60
2019-02-19T07:00:44.938Z,6.60
2019-02-19T07:03:51.591Z,6.70
2019-02-19T07:12:46.448Z,6.70
2019-02-19T07:15:17.866Z,6.70
2019-02-19T07:17:46.464Z,6.70
2019-02-19T07:20:16.209Z,6.70
2019-02-19T07:22:46.538Z,6.70
2019-02-19T07:25:15.630Z,6.70
2019-02-19T07:27:49.875Z,6.80
2019-02-19T07:30:17.676Z,6.80
2019-02-19T07:32:49.732Z,6.80
2019-02-19T07:35:19.219Z,6.80
2019-02-19T07:37:47.950Z,6.80
2019-02-19T07:40:17.473Z,6.80
2019-02-19T07:42:58.376Z,6.90
2019-02-19T07:45:27.601Z,6.90
2019-02-19T07:47:56.950Z,6.80
2019-02-19T07:50:25.776Z,6.80
2019-02-19T07:52:57.893Z,6.80
2019-02-19T07:55:30.304Z,6.90
2019-02-19T07:58:00.252Z,6.90
2019-02-19T08:00:28.488Z,7.00
2019-02-19T08:02:58.242Z,7.00
2019-02-19T08:05:30.019Z,7.00
2019-02-19T08:07:58.040Z,7.00
2019-02-19T08:10:31.321Z,7.10
2019-02-19T08:12:59.936Z,7.20
2019-02-19T08:15:28.763Z,7.20
2019-02-19T08:17:56.975Z,7.30
2019-02-19T08:20:26.951Z,7.30
2019-02-19T08:22:55.880Z,7.20
2019-02-19T08:25:24.778Z,7.20
2019-02-19T08:27:52.810Z,7.20
2019-02-19T08:30:21.385Z,7.10
2019-02-19T08:32:49.457Z,7.10
2019-02-19T08:35:18.454Z,7.00
2019-02-19T08:37:58.818Z,7.10
2019-02-19T08:40:32.876Z,7.10
2019-02-19T08:43:03.771Z,7.10
2019-02-19T08:45:32.254Z,7.00
2019-02-19T08:48:01.146Z,7.00
2019-02-19T08:50:29.893Z,7.20
2019-02-19T08:52:58.173Z,7.30
2019-02-19T08:55:28.279Z,7.50
2019-02-19T08:57:58.657Z,7.50
2019-02-19T09:00:27.942Z,7.60
2019-02-19T09:02:58.202Z,7.70
2019-02-19T09:05:31.835Z,7.70
2019-02-19T09:08:00.517Z,7.70
2019-02-19T09:10:28.718Z,7.70
2019-02-19T09:12:59.253Z,7.70
2019-02-19T09:15:30.181Z,7.70
2019-02-19T09:18:00.122Z,7.70
2019-02-19T09:20:29.829Z,7.70
2019-02-19T09:23:11.168Z,7.70
2019-02-19T09:25:40.988Z,7.70
2019-02-19T09:28:10.152Z,7.70
2019-02-19T09:34:12.143Z,7.80
2019-02-19T09:36:40.397Z,7.90
2019-02-19T09:39:09.581Z,7.90
2019-02-19T09:41:38.088Z,7.80
2019-02-19T09:44:07.513Z,7.80
2019-02-19T09:46:38.256Z,7.90
2019-02-19T09:49:07.538Z,7.90
2019-02-19T09:51:35.683Z,7.90
2019-02-19T09:54:04.630Z,7.90
2019-02-19T09:56:33.600Z,7.90
2019-02-19T09:59:02.043Z,7.90
2019-02-19T10:01:30.963Z,8.00
2019-02-19T10:04:00.979Z,8.00
2019-02-19T10:06:33.528Z,8.00
2019-02-19T10:09:01.991Z,8.00
2019-02-19T10:11:34.441Z,8.10
2019-02-19T10:14:04.252Z,8.20
2019-02-19T10:16:41.726Z,8.30
2019-02-19T10:19:06.865Z,8.30
2019-02-19T10:21:35.884Z,8.40
2019-02-19T10:24:05.106Z,8.40
2019-02-19T10:26:36.382Z,8.50
2019-02-19T10:29:04.524Z,8.40
2019-02-19T10:31:48.555Z,8.40
2019-02-19T10:34:18.035Z,8.40
2019-02-19T10:36:49.569Z,8.40
2019-02-19T10:39:18.593Z,8.40
2019-02-19T10:41:47.085Z,8.70
2019-02-19T10:44:35.159Z,9.30
2019-02-19T10:47:05.164Z,9.80
2019-02-19T10:49:34.774Z,10.30
2019-02-19T10:52:03.494Z,10.60
2019-02-19T10:54:32.060Z,10.40
2019-02-19T10:57:06.914Z,10.20
2019-02-19T10:59:35.697Z,9.90
2019-02-19T11:02:03.968Z,9.70
2019-02-19T11:04:35.770Z,9.60
2019-02-19T11:07:04.584Z,9.50
2019-02-19T11:09:32.894Z,9.30
2019-02-19T11:12:01.249Z,9.20
2019-02-19T11:14:33.180Z,9.00
2019-02-19T11:17:36.371Z,8.90
2019-02-19T11:20:13.610Z,8.90
2019-02-19T11:22:44.510Z,8.90
2019-02-19T11:25:13.098Z,8.80
2019-02-19T11:27:42.671Z,8.80
2019-02-19T11:30:16.839Z,8.90
2019-02-19T11:32:45.313Z,8.90
2019-02-19T11:35:38.162Z,9.00
2019-02-19T11:38:15.665Z,9.00
2019-02-19T11:40:46.799Z,8.90
2019-02-19T11:43:17.471Z,8.80
2019-02-19T11:45:47.626Z,8.70
2019-02-19T11:48:16.224Z,8.60
2019-02-19T11:54:18.188Z,8.50
2019-02-19T11:56:47.693Z,8.50
2019-02-19T11:59:18.919Z,8.60
2019-02-19T12:01:48.876Z,8.50
2019-02-19T12:04:19.768Z,8.50
2019-02-19T12:06:51.584Z,8.50
2019-02-19T12:09:52.819Z,8.50
2019-02-19T12:12:02.135Z,8.50
2019-02-19T12:14:43.780Z,8.40
2019-02-19T12:17:10.353Z,8.40
2019-02-19T12:23:00.101Z,8.50
2019-02-19T12:25:37.614Z,8.50
2019-02-19T12:28:26.572Z,8.50
2019-02-19T12:30:56.062Z,8.50
2019-02-19T12:33:26.060Z,8.40
2019-02-19T12:35:54.380Z,8.40
2019-02-19T12:38:22.457Z,8.50
2019-02-19T12:41:00.171Z,8.50
2019-02-19T12:43:27.909Z,8.50
2019-02-19T12:45:57.052Z,8.60
2019-02-19T12:51:55.872Z,8.70
2019-02-19T12:54:28.451Z,8.80
2019-02-19T12:56:58.387Z,8.80
2019-02-19T12:59:30.264Z,8.80
2019-02-19T13:01:59.616Z,8.70
2019-02-19T13:04:28.361Z,8.60
2019-02-19T13:06:58.043Z,8.60
2019-02-19T13:09:26.957Z,8.60
2019-02-19T13:11:55.812Z,8.60
2019-02-19T13:14:28.645Z,8.40
2019-02-19T13:16:59.197Z,8.40
2019-02-19T13:19:27.219Z,8.40
2019-02-19T13:21:56.842Z,8.40
2019-02-19T13:24:24.802Z,8.30
2019-02-19T13:26:53.214Z,8.20
2019-02-19T13:29:23.327Z,8.20
2019-02-19T13:31:51.404Z,8.30
2019-02-19T13:34:21.014Z,8.40
2019-02-19T13:36:49.031Z,8.60
2019-02-19T13:39:18.322Z,8.60
2019-02-19T13:41:46.758Z,8.70
2019-02-19T13:44:27.033Z,8.60
2019-02-19T13:46:54.791Z,8.60
2019-02-19T13:49:22.396Z,8.60
2019-02-19T13:51:52.278Z,8.60
2019-02-19T13:54:28.608Z,8.60
2019-02-19T13:56:58.265Z,8.60
2019-02-19T13:59:49.628Z,8.60
2019-02-19T14:02:18.377Z,8.60
2019-02-19T14:04:46.689Z,8.60
2019-02-19T14:07:15.363Z,8.60
2019-02-19T14:09:55.701Z,8.60
2019-02-19T14:12:26.351Z,8.60
2019-02-19T14:14:59.904Z,8.60
2019-02-19T14:17:44.439Z,8.60
2019-02-19T14:20:34.736Z,8.60
2019-02-19T14:23:50.624Z,8.60
2019-02-19T14:26:44.542Z,8.70
2019-02-19T14:29:42.082Z,8.60
2019-02-19T14:32:28.787Z,8.60
2019-02-19T14:35:18.577Z,8.60
2019-02-19T14:38:06.271Z,8.50
2019-02-19T14:40:56.714Z,8.50
2019-02-19T14:43:46.169Z,8.60
2019-02-19T14:46:34.886Z,8.60
2019-02-19T14:49:37.313Z,8.70
2019-02-19T14:52:14.709Z,8.70
2019-02-19T14:55:13.159Z,8.70
2019-02-19T14:58:13.152Z,8.60
2019-02-19T15:00:59.294Z,8.50
2019-02-19T15:04:00.664Z,8.50
2019-02-19T15:07:00.307Z,8.40
2019-02-19T15:10:03.239Z,8.30
2019-02-19T15:12:50.172Z,8.20
2019-02-19T15:15:43.446Z,8.10
2019-02-19T15:18:29.647Z,8.10
2019-02-19T15:21:17.141Z,8.10
2019-02-19T15:24:02.796Z,8.10
2019-02-19T15:27:06.818Z,8.00
2019-02-19T15:29:54.657Z,8.00
2019-02-19T15:32:47.120Z,8.00
2019-02-19T15:35:50.197Z,8.00
2019-02-19T15:38:48.249Z,8.00
2019-02-19T15:41:53.734Z,8.00
2019-02-19T15:44:32.727Z,7.90
2019-02-19T15:47:29.729Z,7.90
2019-02-19T15:50:26.981Z,7.90
2019-02-19T15:53:10.982Z,7.90
2019-02-19T15:55:52.302Z,7.90
2019-02-19T15:58:38.595Z,7.90
2019-02-19T16:01:34.919Z,7.90
2019-02-19T16:04:07.167Z,7.90
2019-02-19T16:06:50.576Z,7.90
2019-02-19T16:09:46.512Z,7.80
2019-02-19T16:24:05.930Z,7.80
2019-02-19T16:27:31.946Z,7.70
2019-02-19T16:30:38.920Z,7.70
2019-02-19T16:41:26.640Z,7.60
2019-02-19T16:44:43.273Z,7.60
2019-02-19T17:39:38.658Z,7.50
2019-02-19T17:42:34.296Z,7.60
2019-02-19T17:45:22.395Z,7.50
2019-02-19T17:48:28.460Z,7.50
2019-02-19T17:51:34.612Z,7.50
2019-02-19T17:54:25.036Z,7.50
2019-02-19T17:57:40.229Z,7.50
2019-02-19T18:04:35.666Z,7.50
2019-02-19T18:07:23.611Z,7.50
2019-02-19T18:10:14.409Z,7.50
2019-02-19T18:13:13.988Z,7.50
2019-02-19T18:23:49.867Z,7.50
2019-02-19T18:26:18.136Z,7.40
2019-02-19T18:30:03.662Z,7.40
2019-02-19T18:36:18.381Z,7.40
2019-02-19T18:38:48.407Z,7.40
2019-02-19T18:44:44.999Z,7.30
2019-02-19T18:50:07.077Z,7.10
2019-02-19T18:53:19.928Z,7.10
2019-02-19T18:55:48.227Z,7.00
2019-02-19T18:58:16.819Z,7.00
2019-02-19T19:01:12.175Z,7.00
2019-02-19T19:03:40.500Z,7.00
2019-02-19T19:06:09.972Z,7.00
2019-02-19T19:08:38.122Z,7.00
2019-02-19T19:11:06.186Z,7.00
2019-02-19T19:13:34.931Z,7.00
2019-02-19T19:16:25.775Z,7.00
2019-02-19T19:18:58.427Z,7.00
2019-02-19T19:21:28.008Z,7.00
2019-02-19T19:23:56.355Z,7.00
2019-02-19T19:26:28.434Z,7.00
2019-02-19T19:29:02.057Z,7.00
2019-02-19T19:31:33.401Z,6.90
2019-02-19T19:33:59.892Z,6.90
2019-02-19T19:36:27.808Z,6.90
2019-02-19T19:38:56.128Z,7.00
2019-02-19T19:41:23.867Z,7.00
2019-02-19T19:43:52.849Z,7.00
2019-02-19T19:46:21.929Z,7.00
2019-02-19T19:48:50.227Z,7.10
2019-02-19T19:51:18.210Z,7.10
2019-02-19T19:53:46.150Z,7.10
2019-02-19T19:56:15.083Z,7.10
2019-02-19T19:58:43.565Z,7.00
2019-02-19T20:01:36.256Z,7.00
2019-02-19T20:03:55.406Z,7.10
2019-02-19T20:06:24.131Z,7.10
2019-02-19T20:08:52.034Z,7.10
2019-02-19T20:11:20.510Z,7.10
2019-02-19T20:13:50.813Z,7.10
2019-02-19T20:16:19.053Z,7.00
2019-02-19T20:18:46.994Z,7.10
2019-02-19T20:21:14.882Z,7.10
2019-02-19T20:32:19.816Z,7.00
2019-02-19T20:34:47.462Z,6.90
2019-02-19T20:37:17.130Z,6.90
2019-02-19T20:39:45.330Z,6.90
2019-02-19T20:42:52.784Z,6.90
2019-02-19T20:45:20.734Z,6.90
2019-02-19T20:47:49.881Z,6.90
2019-02-19T20:50:21.077Z,6.90
2019-02-19T20:52:49.765Z,6.90
2019-02-19T20:55:19.505Z,6.90
2019-02-19T20:57:49.906Z,6.90
2019-02-19T21:00:18.146Z,6.90
2019-02-19T21:02:48.517Z,6.90
2019-02-19T21:05:16.567Z,6.90
2019-02-19T21:07:45.002Z,6.90
2019-02-19T21:10:24.098Z,6.90
2019-02-19T21:12:51.923Z,6.90
2019-02-19T21:20:10.180Z,7.00
2019-02-19T21:26:08.791Z,7.00
2019-02-19T21:39:21.571Z,7.00
2019-02-19T21:41:52.991Z,7.00
2019-02-19T21:44:22.237Z,6.90
2019-02-19T21:46:50.678Z,6.90
2019-02-19T21:49:18.706Z,7.00
2019-02-19T21:51:53.931Z,6.90
2019-02-19T21:54:17.894Z,6.90
2019-02-19T21:56:46.000Z,6.90
2019-02-19T21:59:14.764Z,6.90
2019-02-19T22:01:42.836Z,6.90
2019-02-19T22:21:10.822Z,7.10
2019-02-19T22:23:39.986Z,7.00
2019-02-19T22:26:10.191Z,7.00
2019-02-19T22:28:37.967Z,7.00
2019-02-19T22:31:07.191Z,7.00
2019-02-19T22:33:35.938Z,7.00
2019-02-19T22:36:27.230Z,7.00
2019-02-19T22:38:55.302Z,7.00
2019-02-19T22:41:24.080Z,7.00
2019-02-19T22:43:54.939Z,7.00
2019-02-19T22:46:23.194Z,7.00
2019-02-19T22:48:51.101Z,7.00
2019-02-19T22:51:18.814Z,7.00
2019-02-19T22:53:53.651Z,7.00
2019-02-19T22:56:25.112Z,7.00
2019-02-19T22:58:53.554Z,7.00
2019-02-19T23:01:30.815Z,7.00
2019-02-19T23:03:59.348Z,7.00
2019-02-19T23:06:27.358Z,7.00
2019-02-19T23:08:56.163Z,6.90
2019-02-19T23:11:34.248Z,7.00
2019-02-19T23:14:02.763Z,7.00
2019-02-19T23:16:30.769Z,7.00
2019-02-19T23:18:58.403Z,7.00
2019-02-19T23:21:26.407Z,7.00
2019-02-19T23:23:54.158Z,7.00
2019-02-19T23:26:22.201Z,7.00
2019-02-19T23:28:50.235Z,7.00
2019-02-19T23:31:18.751Z,7.00
2019-02-19T23:33:46.877Z,6.90
2019-02-19T23:36:19.911Z,7.00
2019-02-19T23:38:48.527Z,6.90
2019-02-19T23:41:16.810Z,6.90
2019-02-19T23:43:44.951Z,6.90
2019-02-19T23:46:13.084Z,6.90
2019-02-19T23:48:41.685Z,6.90
2019-02-19T23:51:09.445Z,6.90
2019-02-19T23:53:37.273Z,6.90
2019-02-19T23:56:07.740Z,6.90
2019-02-19T23:58:35.850Z,6.80
